SRQ weather

Sarasota Bradenton International Airport
Sarasota/Bradenton, Florida, United States

Public forecast

Using degrees Fahrenheit for public forecast. Weather courtesy of forecast.io.

Current aviation weather report (METAR) for Sarasota Bradenton International Airport

Retrieved 2019/10/15 18:53 UTC (1 hour ago):

KSRQ 151853Z 26008KT 10SM SCT040 32/21 A2997 RMK AO2 SLP148 T03170211

Aviation forecast (TAF) for Sarasota Bradenton International Airport

Retrieved 2019/10/15 18:40 UTC (1 hour ago):

TAF KSRQ 151738Z 1518/1618 23009KT P6SM FEW050 BKN250 FM160100 17005KT P6SM FEW050 BKN250 FM160900 20007KT P6SM SCT020 BKN250 FM161400 22010KT P6SM SCT020 BKN250 FM161700 25013G20KT P6SM SCT030 BKN250